createdAt,value
2022-12-31T00:00:13.114Z,10.40
2022-12-31T00:02:39.969Z,10.40
2022-12-31T00:05:07.648Z,10.40
2022-12-31T00:10:01.772Z,10.50
2022-12-31T00:12:28.486Z,10.50
2022-12-31T00:14:57.640Z,10.50
2022-12-31T00:17:24.384Z,10.50
2022-12-31T00:19:51.061Z,10.50
2022-12-31T00:22:17.781Z,10.50
2022-12-31T00:24:46.872Z,10.50
2022-12-31T00:27:13.519Z,10.50
2022-12-31T00:29:42.427Z,10.50
2022-12-31T00:32:10.282Z,10.50
2022-12-31T00:34:36.976Z,10.50
2022-12-31T00:37:03.707Z,10.50
2022-12-31T00:39:30.478Z,10.50
2022-12-31T00:41:59.548Z,10.50
2022-12-31T00:44:26.202Z,10.60
2022-12-31T00:46:52.872Z,10.50
2022-12-31T00:49:21.928Z,10.50
2022-12-31T00:51:48.730Z,10.50
2022-12-31T00:54:17.957Z,10.50
2022-12-31T00:56:44.660Z,10.50
2022-12-31T00:59:11.324Z,10.50
2022-12-31T01:01:40.227Z,10.50
2022-12-31T01:04:19.090Z,10.60
2022-12-31T01:06:48.329Z,10.60
2022-12-31T01:09:16.711Z,10.50
2022-12-31T01:11:46.178Z,10.50
2022-12-31T01:14:18.659Z,10.60
2022-12-31T01:16:53.578Z,10.50
2022-12-31T01:19:25.996Z,10.60
2022-12-31T01:21:53.564Z,10.50
2022-12-31T01:24:23.398Z,10.60
2022-12-31T01:26:51.680Z,10.60
2022-12-31T01:29:18.462Z,10.60
2022-12-31T01:31:47.577Z,10.60
2022-12-31T01:34:14.220Z,10.60
2022-12-31T01:36:42.848Z,10.50
2022-12-31T01:39:10.794Z,10.50
2022-12-31T01:41:41.931Z,10.50
2022-12-31T01:44:11.589Z,10.50
2022-12-31T01:47:00.017Z,10.40
2022-12-31T01:49:36.365Z,10.30
2022-12-31T01:52:11.621Z,10.30
2022-12-31T01:54:43.844Z,10.30
2022-12-31T01:57:11.829Z,10.30
2022-12-31T01:59:38.916Z,10.30
2022-12-31T02:02:06.086Z,10.20
2022-12-31T02:04:33.015Z,10.20
2022-12-31T02:07:07.198Z,10.20
2022-12-31T02:09:38.155Z,10.10
2022-12-31T02:12:05.945Z,10.10
2022-12-31T02:14:37.032Z,10.10
2022-12-31T02:17:41.770Z,10.10
2022-12-31T02:20:42.653Z,10.10
2022-12-31T02:23:18.849Z,10.20
2022-12-31T02:26:13.535Z,10.10
2022-12-31T02:28:40.295Z,10.20
2022-12-31T02:31:21.730Z,10.20
2022-12-31T02:34:06.349Z,10.20
2022-12-31T02:36:42.846Z,10.20
2022-12-31T02:39:11.857Z,10.20
2022-12-31T02:41:50.542Z,10.20
2022-12-31T02:44:26.985Z,10.20
2022-12-31T02:46:59.224Z,10.20
2022-12-31T02:50:06.945Z,10.30
2022-12-31T02:52:59.011Z,10.30
2022-12-31T02:55:47.162Z,10.40
2022-12-31T02:58:47.253Z,10.40
2022-12-31T03:01:36.990Z,10.40
2022-12-31T03:04:25.037Z,10.40
2022-12-31T03:06:57.467Z,10.40
2022-12-31T03:09:24.209Z,10.40
2022-12-31T03:12:12.101Z,10.50
2022-12-31T03:14:39.096Z,10.50
2022-12-31T03:17:06.085Z,10.60
2022-12-31T03:19:51.083Z,10.70
2022-12-31T03:22:30.023Z,10.80
2022-12-31T03:25:24.891Z,10.80
2022-12-31T03:27:52.566Z,10.80
2022-12-31T03:30:21.090Z,10.90
2022-12-31T03:32:48.868Z,10.90
2022-12-31T03:35:17.187Z,11.00
2022-12-31T03:37:43.956Z,11.00
2022-12-31T03:40:13.125Z,11.00
2022-12-31T03:42:42.611Z,11.00
2022-12-31T03:45:10.787Z,11.10
2022-12-31T03:47:37.883Z,11.10
2022-12-31T03:50:06.650Z,11.10
2022-12-31T03:52:33.418Z,11.20
2022-12-31T03:55:01.571Z,11.20
2022-12-31T03:57:32.287Z,11.20
2022-12-31T03:59:59.089Z,11.40
2022-12-31T04:02:28.795Z,11.30
2022-12-31T04:04:58.550Z,11.30
2022-12-31T04:07:25.281Z,11.40
2022-12-31T04:09:52.010Z,11.40
2022-12-31T04:12:18.741Z,11.40
2022-12-31T04:14:50.061Z,11.50
2022-12-31T04:17:19.056Z,11.50
2022-12-31T04:19:45.816Z,11.50
2022-12-31T04:22:17.477Z,11.60
2022-12-31T04:24:44.505Z,11.60
2022-12-31T04:27:12.955Z,11.60
2022-12-31T04:29:39.655Z,11.60
2022-12-31T04:32:07.666Z,11.60
2022-12-31T04:34:34.812Z,11.60
2022-12-31T04:37:02.151Z,11.60
2022-12-31T04:39:31.846Z,11.70
2022-12-31T04:41:58.555Z,11.90
2022-12-31T04:44:25.232Z,11.70
2022-12-31T04:46:52.002Z,11.70
2022-12-31T04:49:18.767Z,11.70
2022-12-31T04:51:45.564Z,11.80
2022-12-31T04:54:12.445Z,11.80
2022-12-31T04:56:39.217Z,11.80
2022-12-31T04:59:07.210Z,11.80
2022-12-31T05:01:36.742Z,11.80
2022-12-31T05:04:03.612Z,11.90
2022-12-31T05:06:30.249Z,11.90
2022-12-31T05:08:56.957Z,11.90
2022-12-31T05:11:25.780Z,11.90
2022-12-31T05:13:54.992Z,11.90
2022-12-31T05:16:21.851Z,11.90
2022-12-31T05:18:50.692Z,11.90
2022-12-31T05:21:21.185Z,11.90
2022-12-31T05:23:48.607Z,11.90
2022-12-31T05:26:15.698Z,11.90
2022-12-31T05:28:45.056Z,11.90
2022-12-31T05:31:11.735Z,11.90
2022-12-31T05:33:41.583Z,11.90
2022-12-31T05:36:08.592Z,11.90
2022-12-31T05:38:38.026Z,12.00
2022-12-31T05:41:10.437Z,12.00
2022-12-31T05:43:37.189Z,11.80
2022-12-31T05:46:07.406Z,11.90
2022-12-31T05:48:36.312Z,11.90
2022-12-31T05:51:05.584Z,11.80
2022-12-31T05:53:34.308Z,11.80
2022-12-31T05:56:01.217Z,11.80
2022-12-31T05:58:28.021Z,11.70
2022-12-31T06:00:54.744Z,11.70
2022-12-31T06:03:21.693Z,11.70
2022-12-31T06:05:48.506Z,11.70
2022-12-31T06:08:15.281Z,11.70
2022-12-31T06:10:42.482Z,11.70
2022-12-31T06:13:13.556Z,11.70
2022-12-31T06:15:40.502Z,11.70
2022-12-31T06:18:07.936Z,11.60
2022-12-31T06:20:39.645Z,11.60
2022-12-31T06:23:10.962Z,11.60
2022-12-31T06:25:37.650Z,11.60
2022-12-31T06:28:05.702Z,11.60
2022-12-31T06:30:37.046Z,11.60
2022-12-31T06:33:03.730Z,11.60
2022-12-31T06:35:30.674Z,11.60
2022-12-31T06:37:57.587Z,11.60
2022-12-31T06:40:24.353Z,11.60
2022-12-31T06:42:56.009Z,11.60
2022-12-31T06:45:26.302Z,11.60
2022-12-31T06:47:53.050Z,11.60
2022-12-31T06:50:22.025Z,11.60
2022-12-31T06:52:48.651Z,11.50
2022-12-31T06:55:15.995Z,11.60
2022-12-31T06:57:42.875Z,11.50
2022-12-31T07:00:13.275Z,11.50
2022-12-31T07:03:08.703Z,11.50
2022-12-31T07:05:44.437Z,11.50
2022-12-31T07:08:29.549Z,11.50
2022-12-31T07:11:39.284Z,11.50
2022-12-31T07:14:34.930Z,11.50
2022-12-31T07:17:04.360Z,11.50
2022-12-31T07:19:46.470Z,11.40
2022-12-31T07:22:16.140Z,11.50
2022-12-31T07:24:44.784Z,11.50
2022-12-31T07:27:35.345Z,11.50
2022-12-31T07:30:08.882Z,11.50
2022-12-31T07:33:13.383Z,11.50
2022-12-31T07:35:56.058Z,11.50
2022-12-31T07:38:44.122Z,11.50
2022-12-31T07:41:32.612Z,11.50
2022-12-31T07:44:36.440Z,11.50
2022-12-31T07:47:25.046Z,11.50
2022-12-31T07:49:56.814Z,11.50
2022-12-31T07:52:26.700Z,11.50
2022-12-31T07:54:55.652Z,11.60
2022-12-31T07:57:27.566Z,11.60
2022-12-31T08:00:08.455Z,11.60
2022-12-31T08:02:59.964Z,11.60
2022-12-31T08:05:43.509Z,11.60
2022-12-31T08:08:49.700Z,11.60
2022-12-31T08:11:49.481Z,11.70
2022-12-31T08:14:18.707Z,11.70
2022-12-31T08:16:47.868Z,11.80
2022-12-31T08:19:28.405Z,11.80
2022-12-31T08:22:20.524Z,11.90
2022-12-31T08:24:59.340Z,11.90
2022-12-31T08:28:03.622Z,12.10
2022-12-31T08:30:37.035Z,12.10
2022-12-31T08:33:28.233Z,12.10
2022-12-31T08:36:14.439Z,12.30
2022-12-31T08:39:00.288Z,12.40
2022-12-31T08:41:39.031Z,12.40
2022-12-31T08:44:32.821Z,12.50
2022-12-31T08:47:02.303Z,12.50
2022-12-31T08:49:34.239Z,12.50
2022-12-31T08:52:01.647Z,12.50
2022-12-31T08:54:28.769Z,12.60
2022-12-31T08:57:17.235Z,12.60
2022-12-31T09:00:11.411Z,12.60
2022-12-31T09:02:49.989Z,12.70
2022-12-31T09:05:43.348Z,12.80
2022-12-31T09:08:21.404Z,12.80
2022-12-31T09:10:58.810Z,12.90
2022-12-31T09:13:40.239Z,13.00
2022-12-31T09:16:13.164Z,13.10
2022-12-31T09:18:42.076Z,13.20
2022-12-31T09:21:16.352Z,13.20
2022-12-31T09:23:43.382Z,13.30
2022-12-31T09:26:35.203Z,13.40
2022-12-31T09:29:23.081Z,13.60
2022-12-31T09:32:04.771Z,13.80
2022-12-31T09:34:41.717Z,14.00
2022-12-31T09:37:23.039Z,14.10
2022-12-31T09:39:49.825Z,14.30
2022-12-31T09:42:26.631Z,14.40
2022-12-31T09:45:14.378Z,14.50
2022-12-31T09:48:04.589Z,14.70
2022-12-31T09:51:08.460Z,14.90
2022-12-31T09:54:00.007Z,15.10
2022-12-31T09:56:45.006Z,15.30
2022-12-31T09:59:33.250Z,15.30
2022-12-31T10:02:22.803Z,15.30
2022-12-31T10:05:17.238Z,15.40
2022-12-31T10:07:52.956Z,15.40
2022-12-31T10:10:35.315Z,15.30
2022-12-31T10:13:29.923Z,15.30
2022-12-31T10:16:05.335Z,15.20
2022-12-31T10:18:57.501Z,15.20
2022-12-31T10:21:56.696Z,15.20
2022-12-31T10:24:44.736Z,15.20
2022-12-31T10:27:30.210Z,15.20
2022-12-31T10:30:19.559Z,15.30
2022-12-31T10:33:14.152Z,15.30
2022-12-31T10:36:19.900Z,15.30
2022-12-31T10:39:13.509Z,15.30
2022-12-31T10:42:01.856Z,15.30
2022-12-31T10:44:42.860Z,15.30
2022-12-31T10:47:28.950Z,15.40
2022-12-31T10:49:58.657Z,15.40
2022-12-31T10:52:51.704Z,15.40
2022-12-31T10:55:56.073Z,15.40
2022-12-31T10:58:31.004Z,15.40
2022-12-31T11:01:13.459Z,15.50
2022-12-31T11:03:43.159Z,15.60
2022-12-31T11:06:09.922Z,15.60
2022-12-31T11:08:42.577Z,15.60
2022-12-31T11:11:09.174Z,15.70
2022-12-31T11:13:41.687Z,15.70
2022-12-31T11:16:14.280Z,15.70
2022-12-31T11:19:09.926Z,15.80
2022-12-31T11:21:45.597Z,15.80
2022-12-31T11:24:33.915Z,15.80
2022-12-31T11:27:29.306Z,15.90
2022-12-31T11:30:11.140Z,15.90
2022-12-31T11:33:15.557Z,16.00
2022-12-31T11:35:45.022Z,16.00
2022-12-31T11:38:35.887Z,16.00
2022-12-31T11:41:23.944Z,16.00
2022-12-31T11:44:10.827Z,16.10
2022-12-31T11:46:59.065Z,16.10
2022-12-31T11:49:49.984Z,16.10
2022-12-31T11:52:21.253Z,16.20
2022-12-31T11:55:19.526Z,16.20
2022-12-31T11:57:50.780Z,16.20
2022-12-31T12:00:21.434Z,16.30
2022-12-31T12:02:58.464Z,16.30
2022-12-31T12:05:29.016Z,16.30
2022-12-31T12:07:56.322Z,16.30
2022-12-31T12:10:36.968Z,16.30
2022-12-31T12:13:13.734Z,16.40
2022-12-31T12:15:44.486Z,16.40
2022-12-31T12:18:29.920Z,16.40
2022-12-31T12:21:09.010Z,16.50
2022-12-31T12:23:35.745Z,16.50
2022-12-31T12:26:02.552Z,16.40
2022-12-31T12:28:44.424Z,16.50
2022-12-31T12:31:23.488Z,16.60
2022-12-31T12:33:51.994Z,16.50
2022-12-31T12:36:20.681Z,16.60
2022-12-31T12:38:49.562Z,16.60
2022-12-31T12:41:26.280Z,16.70
2022-12-31T12:44:07.659Z,16.80
2022-12-31T12:46:35.859Z,16.70
2022-12-31T12:49:04.056Z,16.70
2022-12-31T12:51:48.387Z,16.80
2022-12-31T12:54:39.836Z,16.70
2022-12-31T12:57:22.769Z,16.70
2022-12-31T12:59:56.473Z,16.70
2022-12-31T13:02:48.705Z,16.70
2022-12-31T13:05:28.381Z,16.70
2022-12-31T13:08:19.883Z,16.70
2022-12-31T13:10:58.280Z,16.60
2022-12-31T13:13:47.236Z,16.60
2022-12-31T13:16:42.790Z,16.60
2022-12-31T13:19:32.360Z,16.60
2022-12-31T13:22:15.078Z,16.60
2022-12-31T13:25:07.292Z,16.60
2022-12-31T13:27:47.951Z,16.60
2022-12-31T13:30:20.853Z,16.70
2022-12-31T13:32:57.128Z,16.60
2022-12-31T13:35:26.768Z,16.60
2022-12-31T13:38:05.321Z,16.70
2022-12-31T13:40:50.690Z,16.70
2022-12-31T13:43:47.235Z,16.60
2022-12-31T13:46:45.598Z,16.50
2022-12-31T13:49:26.637Z,16.50
2022-12-31T13:52:03.820Z,16.50
2022-12-31T13:54:56.288Z,16.50
2022-12-31T13:57:46.433Z,16.50
2022-12-31T14:00:22.908Z,16.50
2022-12-31T14:02:58.278Z,16.50
2022-12-31T14:05:35.651Z,16.50
2022-12-31T14:08:05.490Z,16.40
2022-12-31T14:10:42.428Z,16.40
2022-12-31T14:13:21.435Z,16.40
2022-12-31T14:16:04.984Z,16.30
2022-12-31T14:18:49.625Z,16.30
2022-12-31T14:21:22.721Z,16.20
2022-12-31T14:24:00.368Z,16.20
2022-12-31T14:26:35.868Z,16.20
2022-12-31T14:29:11.785Z,16.10
2022-12-31T14:31:53.419Z,16.10
2022-12-31T14:34:35.277Z,16.10
2022-12-31T14:37:16.093Z,16.00
2022-12-31T14:39:49.329Z,15.90
2022-12-31T14:42:49.044Z,15.90
2022-12-31T14:45:52.108Z,15.80
2022-12-31T14:49:10.880Z,15.70
2022-12-31T14:51:37.671Z,15.60
2022-12-31T14:54:28.615Z,15.40
2022-12-31T14:56:55.769Z,15.20
2022-12-31T14:59:28.494Z,15.10
2022-12-31T15:01:59.067Z,15.00
2022-12-31T15:04:47.208Z,14.90
2022-12-31T15:07:33.462Z,14.80
2022-12-31T15:10:20.290Z,14.80
2022-12-31T15:13:01.076Z,14.70
2022-12-31T15:15:36.129Z,14.70
2022-12-31T15:18:28.576Z,14.50
2022-12-31T15:21:20.714Z,14.50
2022-12-31T15:23:49.957Z,14.50
2022-12-31T15:26:25.516Z,14.40
2022-12-31T15:29:04.146Z,14.30
2022-12-31T15:31:32.933Z,14.20
2022-12-31T15:34:06.459Z,14.10
2022-12-31T15:36:41.076Z,14.10
2022-12-31T15:39:13.030Z,14.10
2022-12-31T15:42:18.785Z,14.10
2022-12-31T15:44:43.965Z,14.00
2022-12-31T15:47:30.441Z,14.00
2022-12-31T15:50:02.486Z,14.00
2022-12-31T15:53:00.028Z,14.00
2022-12-31T15:55:26.775Z,13.90
2022-12-31T15:58:00.250Z,13.90
2022-12-31T16:00:55.337Z,13.80
2022-12-31T16:03:28.578Z,13.80
2022-12-31T16:06:00.813Z,13.70
2022-12-31T16:08:31.847Z,13.70
2022-12-31T16:11:01.347Z,13.60
2022-12-31T16:13:29.306Z,13.50
2022-12-31T16:16:08.706Z,13.50
2022-12-31T16:18:40.914Z,13.40
2022-12-31T16:21:33.947Z,13.40
2022-12-31T16:24:23.366Z,13.30
2022-12-31T16:26:53.200Z,13.30
2022-12-31T16:29:22.520Z,13.20
2022-12-31T16:31:51.131Z,13.20
2022-12-31T16:34:23.321Z,13.20
2022-12-31T16:37:00.313Z,13.10
2022-12-31T16:39:31.288Z,13.00
2022-12-31T16:42:20.004Z,13.00
2022-12-31T16:44:48.492Z,12.90
2022-12-31T16:47:34.834Z,12.90
2022-12-31T16:50:16.638Z,12.80
2022-12-31T16:52:45.940Z,12.70
2022-12-31T16:55:23.177Z,12.70
2022-12-31T16:57:55.436Z,12.80
2022-12-31T17:00:25.069Z,12.60
2022-12-31T17:03:08.811Z,12.60
2022-12-31T17:06:03.273Z,12.50
2022-12-31T17:08:50.149Z,13.00
2022-12-31T17:11:23.426Z,12.40
2022-12-31T17:14:15.723Z,12.30
2022-12-31T17:17:08.184Z,12.20
2022-12-31T17:19:44.902Z,12.30
2022-12-31T17:22:41.038Z,12.20
2022-12-31T17:25:30.522Z,12.30
2022-12-31T17:27:58.959Z,12.20
2022-12-31T17:30:32.647Z,12.20
2022-12-31T17:33:25.601Z,12.10
2022-12-31T17:36:17.151Z,12.10
2022-12-31T17:38:46.090Z,12.00
2022-12-31T17:41:28.355Z,12.00
2022-12-31T17:43:58.464Z,11.90
2022-12-31T17:46:26.382Z,11.90
2022-12-31T17:49:01.157Z,12.00
2022-12-31T17:51:27.839Z,11.90
2022-12-31T17:53:56.877Z,11.80
2022-12-31T17:56:25.859Z,11.70
2022-12-31T17:58:53.742Z,11.60
2022-12-31T18:01:23.486Z,11.70
2022-12-31T18:03:55.694Z,11.70
2022-12-31T18:06:22.714Z,11.60
2022-12-31T18:08:51.584Z,11.70
2022-12-31T18:11:23.573Z,11.50
2022-12-31T18:13:53.028Z,11.50
2022-12-31T18:16:22.203Z,11.50
2022-12-31T18:18:49.560Z,11.40
2022-12-31T18:21:32.505Z,11.40
2022-12-31T18:26:26.888Z,11.40
2022-12-31T18:28:53.867Z,11.30
2022-12-31T18:31:30.824Z,11.20
2022-12-31T18:33:58.976Z,11.20
2022-12-31T18:36:26.712Z,11.10
2022-12-31T18:38:55.535Z,11.10
2022-12-31T18:41:31.422Z,11.10
2022-12-31T18:43:58.092Z,11.10
2022-12-31T18:46:28.053Z,11.10
2022-12-31T18:48:54.743Z,11.00
2022-12-31T18:51:31.088Z,11.00
2022-12-31T18:54:01.863Z,10.90
2022-12-31T18:56:28.700Z,10.90
2022-12-31T18:58:55.455Z,10.90
2022-12-31T19:01:30.419Z,10.80
2022-12-31T19:03:59.593Z,10.80
2022-12-31T19:06:26.726Z,10.80
2022-12-31T19:08:56.746Z,10.80
2022-12-31T19:11:23.888Z,10.70
2022-12-31T19:13:53.102Z,10.70
2022-12-31T19:16:19.887Z,10.60
2022-12-31T19:18:50.705Z,10.60
2022-12-31T19:21:22.697Z,10.60
2022-12-31T19:23:54.453Z,10.90
2022-12-31T19:26:22.607Z,10.50
2022-12-31T19:28:50.623Z,10.50
2022-12-31T19:31:18.143Z,10.50
2022-12-31T19:33:45.121Z,10.50
2022-12-31T19:36:19.204Z,10.50
2022-12-31T19:38:50.240Z,10.50
2022-12-31T19:41:21.299Z,10.50
2022-12-31T19:43:48.131Z,10.40
2022-12-31T19:46:16.716Z,10.40
2022-12-31T19:48:46.165Z,10.40
2022-12-31T19:51:18.517Z,10.40
2022-12-31T19:53:46.029Z,10.40
2022-12-31T19:56:15.046Z,10.40
2022-12-31T19:58:41.694Z,10.30
2022-12-31T20:01:09.637Z,10.30
2022-12-31T20:03:40.783Z,10.40
2022-12-31T20:06:09.834Z,10.60
2022-12-31T20:08:39.714Z,10.30
2022-12-31T20:11:17.931Z,10.30
2022-12-31T20:13:48.356Z,10.30
2022-12-31T20:16:17.142Z,10.30
2022-12-31T20:18:45.504Z,10.30
2022-12-31T20:21:18.194Z,10.30
2022-12-31T20:23:45.065Z,10.30
2022-12-31T20:26:12.463Z,10.30
2022-12-31T20:28:44.665Z,10.30
2022-12-31T20:31:17.124Z,10.30
2022-12-31T20:33:43.940Z,10.20
2022-12-31T20:36:17.376Z,10.30
2022-12-31T20:38:46.919Z,10.30
2022-12-31T20:41:16.445Z,10.20
2022-12-31T20:43:46.218Z,10.20
2022-12-31T20:46:23.149Z,10.20
2022-12-31T20:48:51.551Z,10.20
2022-12-31T20:51:19.650Z,10.20
2022-12-31T20:53:52.309Z,10.20
2022-12-31T20:56:24.680Z,10.20
2022-12-31T20:58:51.547Z,10.10
2022-12-31T21:01:18.807Z,10.10
2022-12-31T21:06:36.901Z,10.10
2022-12-31T21:09:08.470Z,10.10
2022-12-31T21:11:53.647Z,10.00
2022-12-31T21:14:20.734Z,10.00
2022-12-31T21:16:52.055Z,10.00
2022-12-31T21:19:18.717Z,9.90
2022-12-31T21:21:45.361Z,9.90
2022-12-31T21:24:12.184Z,9.90
2022-12-31T21:26:38.905Z,9.90
2022-12-31T21:29:05.636Z,9.90
2022-12-31T21:31:37.047Z,9.90
2022-12-31T21:34:03.732Z,9.80
2022-12-31T21:36:30.371Z,9.80
2022-12-31T21:38:57.120Z,9.80
2022-12-31T21:41:42.585Z,9.70
2022-12-31T21:44:09.397Z,9.70
2022-12-31T21:46:38.570Z,9.70
2022-12-31T21:49:07.477Z,9.60
2022-12-31T21:51:54.381Z,9.60
2022-12-31T21:54:41.190Z,9.60
2022-12-31T21:57:08.537Z,9.60
2022-12-31T22:00:24.008Z,9.60
2022-12-31T22:03:02.521Z,9.60
2022-12-31T22:05:33.990Z,9.60
2022-12-31T22:08:00.678Z,9.50
2022-12-31T22:10:27.570Z,9.50
2022-12-31T22:12:56.771Z,9.50
2022-12-31T22:15:25.944Z,9.50
2022-12-31T22:17:52.575Z,9.50
2022-12-31T22:20:28.200Z,9.50
2022-12-31T22:22:55.634Z,9.40
2022-12-31T22:25:22.355Z,9.40
2022-12-31T22:28:27.404Z,9.40
2022-12-31T22:30:40.707Z,9.40
2022-12-31T22:33:09.727Z,9.40
2022-12-31T22:35:36.375Z,9.40
2022-12-31T22:38:08.321Z,9.40
2022-12-31T22:40:38.920Z,9.40
2022-12-31T22:43:05.603Z,9.40
2022-12-31T22:45:36.423Z,9.40
2022-12-31T22:48:03.137Z,9.40
2022-12-31T22:50:31.903Z,9.30
2022-12-31T22:52:58.598Z,9.30
2022-12-31T22:55:25.335Z,9.30
2022-12-31T22:57:51.986Z,9.30
2022-12-31T23:00:21.154Z,9.20
2022-12-31T23:02:47.804Z,9.20
2022-12-31T23:05:16.510Z,9.20
2022-12-31T23:07:45.628Z,9.20
2022-12-31T23:10:30.867Z,9.20
2022-12-31T23:13:19.793Z,9.20
2022-12-31T23:16:05.074Z,9.20
2022-12-31T23:18:50.299Z,9.10
2022-12-31T23:21:35.453Z,9.10
2022-12-31T23:24:04.351Z,9.10
2022-12-31T23:26:33.371Z,9.10
2022-12-31T23:29:02.264Z,9.10
2022-12-31T23:31:29.022Z,9.10
2022-12-31T23:33:56.068Z,9.10
2022-12-31T23:36:25.088Z,9.10
2022-12-31T23:38:54.703Z,9.00
2022-12-31T23:41:21.825Z,9.00
2022-12-31T23:43:49.092Z,9.00
2022-12-31T23:46:17.490Z,9.40
2022-12-31T23:48:44.247Z,9.50
2022-12-31T23:51:13.065Z,9.50
2022-12-31T23:53:39.832Z,9.20
2022-12-31T23:56:20.894Z,9.10
2022-12-31T23:58:55.121Z,9.10
